Time;durP1;ratioP1;P1;durP2;ratioP2;P2;SDS_P1;SDS_P2;PMS_P1;PMS_P2;Temp;Humidity;BMP_temperature;BMP_pressure;BME280_temperature;BME280_humidity;BME280_pressure;Samples;Min_cycle;Max_cycle;Signal;HPM_P1;HPM_P2
2022/11/11 00:00:11;;;;;;;14.37;5.50;;;12.10;83.60;;;;;;5038306;28;20200;-92
2022/11/11 00:02:37;;;;;;;14.93;5.97;;;12.10;83.60;;;;;;5037777;28;20181;-92
2022/11/11 00:05:03;;;;;;;14.87;5.33;;;12.10;83.60;;;;;;5036689;28;20232;-93
2022/11/11 00:07:29;;;;;;;10.93;4.57;;;12.10;83.40;;;;;;5038561;28;20165;-92
2022/11/11 00:09:54;;;;;;;12.23;4.50;;;12.20;83.70;;;;;;5038062;28;20153;-93
2022/11/11 00:12:23;;;;;;;13.93;5.23;;;12.10;83.70;;;;;;5037341;28;20185;-93
2022/11/11 00:14:48;;;;;;;22.83;5.40;;;12.10;83.70;;;;;;5033242;28;20184;-93
2022/11/11 00:25:46;;;;;;;9.07;4.20;;;12.10;83.90;;;;;;5034887;28;20269;-92
2022/11/11 00:28:15;;;;;;;14.10;5.30;;;12.10;83.70;;;;;;5017042;28;20204;-91
2022/11/11 00:30:41;;;;;;;9.60;4.60;;;12.20;83.90;;;;;;5014197;28;20173;-91
2022/11/11 00:33:06;;;;;;;10.40;4.90;;;12.10;83.60;;;;;;5014558;28;20173;-92
2022/11/11 00:41:21;;;;;;;10.83;5.60;;;12.20;83.70;;;;;;5023722;28;20196;-94
2022/11/11 00:43:47;;;;;;;12.03;5.00;;;12.20;83.70;;;;;;5004981;28;20162;-92
2022/11/11 00:51:43;;;;;;;11.23;4.93;;;12.20;83.70;;;;;;4998117;28;20165;-91
2022/11/11 00:54:10;;;;;;;12.73;5.57;;;12.20;84.00;;;;;;4997538;28;20205;-92
2022/11/11 00:56:36;;;;;;;12.43;4.50;;;12.20;84.00;;;;;;4998593;28;20182;-91
2022/11/11 00:59:03;;;;;;;13.20;4.53;;;12.20;84.00;;;;;;4996366;28;20277;-91
2022/11/11 01:01:29;;;;;;;12.33;5.13;;;12.20;84.20;;;;;;4996275;28;20174;-92
2022/11/11 01:03:54;;;;;;;12.43;5.47;;;12.20;84.00;;;;;;4998128;28;20205;-92
2022/11/11 01:06:20;;;;;;;8.90;4.90;;;12.20;84.10;;;;;;4997639;28;20223;-91
2022/11/11 01:08:46;;;;;;;12.13;4.87;;;12.20;84.20;;;;;;4997253;28;20324;-91
2022/11/11 01:11:13;;;;;;;15.10;4.77;;;12.20;84.50;;;;;;4997337;28;20174;-91
2022/11/11 01:13:39;;;;;;;12.10;5.33;;;12.20;84.40;;;;;;4996340;28;20183;-91
2022/11/11 01:16:08;;;;;;;19.90;5.13;;;12.20;84.40;;;;;;4996508;28;20213;-91
2022/11/11 01:18:33;;;;;;;7.50;4.00;;;12.20;84.20;;;;;;4995762;28;20645;-92
2022/11/11 01:21:00;;;;;;;14.07;6.20;;;12.20;84.00;;;;;;4996084;28;20232;-92
2022/11/11 01:23:27;;;;;;;16.63;5.20;;;12.20;83.90;;;;;;4995975;28;20186;-91
2022/11/11 01:25:52;;;;;;;12.30;4.87;;;12.20;84.10;;;;;;4995380;28;20209;-91
2022/11/11 01:28:18;;;;;;;12.27;5.37;;;12.20;84.10;;;;;;4999137;28;20198;-91
2022/11/11 01:30:44;;;;;;;13.00;5.40;;;12.20;84.20;;;;;;4997096;28;20178;-92
2022/11/11 01:33:10;;;;;;;16.03;5.47;;;12.20;84.00;;;;;;4998212;28;20182;-91
2022/11/11 01:35:40;;;;;;;12.73;5.50;;;12.20;84.20;;;;;;5003800;28;20205;-92
2022/11/11 01:38:09;;;;;;;17.33;5.23;;;12.20;84.50;;;;;;4997282;28;20282;-91
2022/11/11 01:40:46;;;;;;;15.80;5.13;;;12.20;84.70;;;;;;4997213;28;20178;-91
2022/11/11 01:43:12;;;;;;;12.00;4.77;;;12.20;84.70;;;;;;4996866;28;20188;-91
2022/11/11 01:45:50;;;;;;;20.17;5.87;;;12.20;84.50;;;;;;4997847;28;20249;-91
2022/11/11 01:51:36;;;;;;;14.53;5.13;;;12.20;84.70;;;;;;4999095;28;20204;-92
2022/11/11 01:54:07;;;;;;;17.40;5.47;;;12.20;84.80;;;;;;4998776;28;20193;-92
2022/11/11 01:56:33;;;;;;;15.53;5.80;;;12.20;84.80;;;;;;4999731;28;20233;-92
2022/11/11 01:59:04;;;;;;;15.10;5.77;;;12.10;84.70;;;;;;4997240;28;20225;-91
2022/11/11 02:01:30;;;;;;;20.87;5.87;;;12.10;84.80;;;;;;5000996;28;20175;-91
2022/11/11 02:06:43;;;;;;;13.00;4.90;;;12.10;84.90;;;;;;4999032;28;20209;-92
2022/11/11 02:09:10;;;;;;;16.27;5.33;;;12.20;84.80;;;;;;4997480;28;20178;-91
2022/11/11 02:14:35;;;;;;;13.37;5.53;;;12.20;84.60;;;;;;4997510;28;20285;-91
2022/11/11 02:17:04;;;;;;;13.73;5.43;;;12.20;84.60;;;;;;4995833;28;20248;-91
2022/11/11 02:19:58;;;;;;;14.77;5.80;;;12.30;84.30;;;;;;4995951;28;20170;-92
2022/11/11 02:22:38;;;;;;;15.37;5.37;;;12.30;84.40;;;;;;4999041;28;20163;-91
2022/11/11 02:25:07;;;;;;;16.10;5.57;;;12.20;84.80;;;;;;4998636;28;20209;-92
2022/11/11 02:27:37;;;;;;;14.20;5.23;;;12.20;84.80;;;;;;4998865;28;20201;-92
2022/11/11 02:30:05;;;;;;;17.27;5.73;;;12.20;85.10;;;;;;4997413;28;20178;-91
2022/11/11 02:32:31;;;;;;;11.97;5.10;;;12.20;84.80;;;;;;4996935;28;20170;-91
2022/11/11 02:34:56;;;;;;;12.90;5.97;;;12.30;84.60;;;;;;4995153;28;20198;-91
2022/11/11 02:37:24;;;;;;;13.17;5.53;;;12.30;84.80;;;;;;4997344;28;20269;-91
2022/11/11 02:39:56;;;;;;;14.47;5.53;;;12.20;85.00;;;;;;4999206;28;20189;-91
2022/11/11 02:42:23;;;;;;;14.33;5.37;;;12.20;85.20;;;;;;4997553;28;20174;-91
2022/11/11 02:44:48;;;;;;;12.40;6.07;;;12.10;85.30;;;;;;4996188;28;20248;-91
2022/11/11 02:47:15;;;;;;;14.17;5.83;;;12.10;85.30;;;;;;4996808;28;20181;-92
2022/11/11 02:49:40;;;;;;;17.83;6.97;;;12.00;85.30;;;;;;4998602;28;20235;-92
2022/11/11 02:52:06;;;;;;;15.07;6.13;;;12.00;85.40;;;;;;5001287;28;20244;-92
2022/11/11 02:54:31;;;;;;;13.63;6.27;;;12.10;85.40;;;;;;5000711;28;20256;-91
2022/11/11 02:57:06;;;;;;;13.17;6.03;;;12.00;85.30;;;;;;5000561;28;20184;-92
2022/11/11 02:59:32;;;;;;;17.73;6.13;;;12.00;85.20;;;;;;4999115;28;20189;-91
2022/11/11 03:01:57;;;;;;;16.17;6.70;;;12.00;85.20;;;;;;4999512;28;20178;-91
2022/11/11 03:04:23;;;;;;;16.70;6.30;;;11.90;85.40;;;;;;4998206;28;20216;-90
2022/11/11 03:06:49;;;;;;;13.40;6.17;;;11.90;85.40;;;;;;4999963;28;20242;-92
2022/11/11 03:09:14;;;;;;;16.43;6.93;;;11.90;85.60;;;;;;4999925;28;20181;-92
2022/11/11 03:11:40;;;;;;;15.30;5.80;;;11.90;85.70;;;;;;4998140;28;20174;-91
2022/11/11 03:14:07;;;;;;;9.80;5.27;;;11.80;85.70;;;;;;4998305;28;20567;-91
2022/11/11 03:19:17;;;;;;;17.37;5.80;;;11.80;85.80;;;;;;5000632;28;20305;-92
2022/11/11 03:21:42;;;;;;;14.73;6.20;;;11.80;86.00;;;;;;4999308;28;20218;-91
2022/11/11 03:24:08;;;;;;;18.90;7.03;;;11.80;86.20;;;;;;4998412;28;20189;-91
2022/11/11 03:26:34;;;;;;;15.63;8.00;;;11.80;86.00;;;;;;4998626;28;20643;-91
2022/11/11 03:29:00;;;;;;;15.40;6.13;;;11.80;85.90;;;;;;4999639;28;20278;-92
2022/11/11 03:31:25;;;;;;;13.90;6.20;;;11.80;86.00;;;;;;4999706;28;20281;-92
2022/11/11 03:33:51;;;;;;;18.93;7.07;;;11.70;86.10;;;;;;4999163;28;20289;-91
2022/11/11 03:36:16;;;;;;;15.27;7.37;;;11.80;86.10;;;;;;4999859;28;20221;-91
2022/11/11 03:38:42;;;;;;;16.90;6.80;;;11.70;86.20;;;;;;5000319;28;20239;-91
2022/11/11 03:41:07;;;;;;;15.23;6.43;;;11.80;86.20;;;;;;4999624;28;20178;-92
2022/11/11 03:43:37;;;;;;;14.60;6.33;;;11.80;86.20;;;;;;4998524;28;20546;-92
2022/11/11 03:46:04;;;;;;;14.50;6.67;;;11.80;86.40;;;;;;4999309;28;20206;-91
2022/11/11 03:48:33;;;;;;;12.03;5.83;;;11.70;86.40;;;;;;4998810;28;20654;-91
2022/11/11 03:50:59;;;;;;;12.43;6.40;;;11.80;86.30;;;;;;4999144;28;20220;-91
2022/11/11 03:53:24;;;;;;;15.10;6.17;;;11.70;86.40;;;;;;4998655;28;20178;-91
2022/11/11 03:55:51;;;;;;;16.83;6.90;;;11.70;86.30;;;;;;4998134;28;20197;-92
2022/11/11 03:58:17;;;;;;;13.10;5.90;;;11.70;86.50;;;;;;4997735;28;20186;-92
2022/11/11 04:00:43;;;;;;;18.27;6.47;;;11.70;86.70;;;;;;4998846;28;20181;-92
2022/11/11 04:11:43;;;;;;;15.97;6.63;;;11.70;86.70;;;;;;5000036;28;20228;-91
2022/11/11 04:16:56;;;;;;;20.13;7.37;;;11.60;86.70;;;;;;4998558;28;20230;-92
2022/11/11 04:22:07;;;;;;;15.57;7.13;;;11.50;86.80;;;;;;4998827;28;20221;-91
2022/11/11 04:27:18;;;;;;;12.90;6.80;;;11.50;86.80;;;;;;4998719;28;20185;-91
2022/11/11 04:29:45;;;;;;;20.17;7.30;;;11.50;86.90;;;;;;4996919;28;20170;-91
2022/11/11 04:32:35;;;;;;;9.43;7.17;;;11.40;87.10;;;;;;4997321;28;20170;-92
2022/11/11 04:35:06;;;;;;;16.67;7.63;;;11.40;87.10;;;;;;4996903;28;20685;-91
2022/11/11 04:37:33;;;;;;;18.53;7.60;;;11.30;87.20;;;;;;4996644;28;20169;-91
2022/11/11 04:42:43;;;;;;;15.73;8.37;;;11.30;87.40;;;;;;4998265;28;20566;-92
2022/11/11 04:48:00;;;;;;;16.50;8.20;;;11.30;87.40;;;;;;5001835;28;20172;-91
2022/11/11 04:50:32;;;;;;;16.87;8.20;;;11.30;87.30;;;;;;5002656;28;20216;-91
2022/11/11 04:52:58;;;;;;;17.30;7.33;;;11.30;87.30;;;;;;4999241;28;20204;-91
2022/11/11 04:58:09;;;;;;;17.13;8.73;;;11.30;87.50;;;;;;4999073;28;20173;-90
2022/11/11 05:00:35;;;;;;;16.93;9.20;;;11.20;87.40;;;;;;5000130;28;20178;-91
2022/11/11 05:03:17;;;;;;;18.33;8.60;;;11.30;87.60;;;;;;4999144;28;20209;-91
2022/11/11 05:09:00;;;;;;;22.53;8.50;;;11.20;87.70;;;;;;5000239;28;20162;-91
2022/11/11 05:11:34;;;;;;;20.37;9.27;;;11.20;87.60;;;;;;4997596;28;20193;-91
2022/11/11 05:22:22;;;;;;;15.50;7.17;;;11.10;87.70;;;;;;4999100;28;20301;-90
2022/11/11 05:27:34;;;;;;;21.77;8.53;;;11.00;87.90;;;;;;4998193;28;20288;-90
2022/11/11 05:30:00;;;;;;;20.53;8.57;;;11.00;88.00;;;;;;4997703;28;20173;-91
2022/11/11 05:32:26;;;;;;;13.50;8.53;;;10.90;87.90;;;;;;4996670;28;20178;-91
2022/11/11 05:34:51;;;;;;;17.70;8.80;;;10.90;88.20;;;;;;4996113;28;20206;-91
2022/11/11 05:37:17;;;;;;;22.10;10.17;;;10.90;88.30;;;;;;4996046;28;20194;-91
2022/11/11 05:39:43;;;;;;;18.33;10.20;;;10.90;88.20;;;;;;4997244;28;20188;-91
2022/11/11 05:42:09;;;;;;;19.47;9.57;;;10.90;88.30;;;;;;4997620;28;20277;-91
2022/11/11 05:44:35;;;;;;;18.63;9.57;;;10.90;88.30;;;;;;4997629;28;20225;-91
2022/11/11 05:47:01;;;;;;;18.90;10.43;;;10.80;88.30;;;;;;4998497;28;20212;-91
2022/11/11 05:49:27;;;;;;;18.13;9.90;;;10.80;88.40;;;;;;4996886;28;20639;-91
2022/11/11 05:51:54;;;;;;;23.30;10.10;;;10.80;88.30;;;;;;4997710;28;20174;-92
2022/11/11 05:54:21;;;;;;;20.40;9.50;;;10.80;88.30;;;;;;4997227;28;20201;-91
2022/11/11 05:56:46;;;;;;;17.83;10.77;;;10.80;88.40;;;;;;4997670;28;20181;-91
2022/11/11 05:59:12;;;;;;;17.40;9.30;;;10.80;88.40;;;;;;4998495;28;20182;-92
2022/11/11 06:01:38;;;;;;;18.13;9.67;;;10.80;88.50;;;;;;4998451;28;20643;-91
2022/11/11 06:04:04;;;;;;;19.53;11.40;;;10.80;88.50;;;;;;4997795;28;20196;-91
2022/11/11 06:06:30;;;;;;;17.53;9.93;;;10.80;88.60;;;;;;4997700;28;20229;-91
2022/11/11 06:08:56;;;;;;;18.67;10.37;;;10.70;88.60;;;;;;4996996;28;20182;-92
2022/11/11 06:11:22;;;;;;;18.97;10.73;;;10.70;88.50;;;;;;4997014;28;20174;-91
2022/11/11 06:13:48;;;;;;;17.73;9.97;;;10.70;88.60;;;;;;4996372;28;20604;-92
2022/11/11 06:16:14;;;;;;;20.07;10.33;;;10.70;88.50;;;;;;4996207;28;20225;-91
2022/11/11 06:18:40;;;;;;;24.90;10.87;;;10.70;88.60;;;;;;4996949;28;20181;-91
2022/11/11 06:21:05;;;;;;;17.37;9.57;;;10.60;88.60;;;;;;4997467;28;20178;-92
2022/11/11 06:23:31;;;;;;;23.83;10.73;;;10.60;88.80;;;;;;4996137;28;20174;-91
2022/11/11 06:26:12;;;;;;;15.87;9.63;;;10.60;88.80;;;;;;4995564;28;20218;-91
2022/11/11 06:28:42;;;;;;;20.40;11.37;;;10.60;88.80;;;;;;4998961;28;20240;-91
2022/11/11 06:31:09;;;;;;;26.53;9.97;;;10.60;89.00;;;;;;4999498;28;20665;-91
2022/11/11 06:33:35;;;;;;;15.03;11.30;;;10.60;88.90;;;;;;5002550;28;20178;-91
2022/11/11 06:36:02;;;;;;;17.50;10.73;;;10.60;89.10;;;;;;5001611;28;20202;-91
2022/11/11 06:38:28;;;;;;;24.40;11.40;;;10.60;89.00;;;;;;4999958;28;20269;-91
2022/11/11 06:40:54;;;;;;;24.87;12.93;;;10.50;89.20;;;;;;4999925;28;20725;-90
2022/11/11 06:43:19;;;;;;;23.07;11.37;;;10.60;89.10;;;;;;5000382;28;20193;-91
2022/11/11 06:45:48;;;;;;;20.33;11.03;;;10.60;89.10;;;;;;4999888;28;20716;-89
2022/11/11 06:48:14;;;;;;;24.07;13.23;;;10.60;89.10;;;;;;4999266;28;20181;-91
2022/11/11 06:50:39;;;;;;;22.20;12.73;;;10.60;89.30;;;;;;4999305;28;20174;-91
2022/11/11 06:53:07;;;;;;;27.73;12.40;;;10.60;89.40;;;;;;4999864;28;20189;-91
2022/11/11 06:55:33;;;;;;;18.43;11.13;;;10.50;89.40;;;;;;4998427;28;20198;-91
2022/11/11 06:58:15;;;;;;;23.17;12.80;;;10.50;89.40;;;;;;5000033;28;20189;-91
2022/11/11 07:00:42;;;;;;;20.67;12.00;;;10.50;89.30;;;;;;4999768;28;20666;-92
2022/11/11 07:03:10;;;;;;;25.90;13.37;;;10.50;89.40;;;;;;4998738;28;20272;-91
2022/11/11 07:05:36;;;;;;;20.13;12.17;;;10.50;89.40;;;;;;4998509;28;20244;-90
2022/11/11 07:08:05;;;;;;;22.07;13.80;;;10.50;89.50;;;;;;5001405;28;20646;-91
2022/11/11 07:10:32;;;;;;;18.90;12.30;;;10.50;89.50;;;;;;5003189;28;20220;-92
2022/11/11 07:13:01;;;;;;;27.97;13.50;;;10.50;89.50;;;;;;5003084;28;20174;-90
2022/11/11 07:15:27;;;;;;;21.10;13.13;;;10.50;89.50;;;;;;4997109;28;20214;-91
2022/11/11 07:17:53;;;;;;;27.50;13.90;;;10.50;89.60;;;;;;4998173;28;20181;-91
2022/11/11 07:20:18;;;;;;;27.13;14.77;;;10.50;89.70;;;;;;4999411;28;20181;-91
2022/11/11 07:22:44;;;;;;;32.20;14.97;;;10.50;89.60;;;;;;4998014;28;20236;-91
2022/11/11 07:25:09;;;;;;;28.63;14.23;;;10.50;89.60;;;;;;4995856;28;20682;-91
2022/11/11 07:27:37;;;;;;;19.53;13.23;;;10.50;89.70;;;;;;4996569;28;20178;-91
2022/11/11 07:30:03;;;;;;;19.43;13.57;;;10.50;89.70;;;;;;4998358;28;20182;-91
2022/11/11 07:32:29;;;;;;;25.33;14.27;;;10.40;89.70;;;;;;4997762;28;20205;-91
2022/11/11 07:34:54;;;;;;;27.60;14.83;;;10.40;89.70;;;;;;4998468;28;20662;-89
2022/11/11 07:37:20;;;;;;;29.90;14.37;;;10.40;89.80;;;;;;4994976;28;20182;-89
2022/11/11 07:39:46;;;;;;;22.63;14.70;;;10.50;89.80;;;;;;4998526;28;20185;-91
2022/11/11 07:42:11;;;;;;;25.57;14.77;;;10.50;89.90;;;;;;5000268;28;20193;-91
2022/11/11 07:44:37;;;;;;;23.40;16.10;;;10.50;89.90;;;;;;4995455;28;20240;-91
2022/11/11 07:47:02;;;;;;;24.80;16.07;;;10.50;89.90;;;;;;4996000;28;20224;-91
2022/11/11 07:49:28;;;;;;;26.83;14.97;;;10.50;89.90;;;;;;4996545;28;20186;-89
2022/11/11 07:51:54;;;;;;;29.50;16.57;;;10.50;89.90;;;;;;4996337;28;20181;-91
2022/11/11 07:54:19;;;;;;;25.57;17.30;;;10.50;89.90;;;;;;4997179;28;20194;-91
2022/11/11 07:56:45;;;;;;;31.03;16.57;;;10.50;90.00;;;;;;4995252;28;20187;-90
2022/11/11 07:59:10;;;;;;;31.13;16.23;;;10.60;90.00;;;;;;4996260;28;20181;-90
2022/11/11 08:01:36;;;;;;;23.33;15.97;;;10.60;90.00;;;;;;4995720;28;20178;-90
2022/11/11 08:04:01;;;;;;;32.20;17.50;;;10.60;90.20;;;;;;4995037;28;20232;-91
2022/11/11 08:06:27;;;;;;;37.33;17.13;;;10.60;90.10;;;;;;4996045;28;20332;-90
2022/11/11 08:08:53;;;;;;;35.53;18.57;;;10.60;90.30;;;;;;4996668;28;20177;-91
2022/11/11 08:13:39;;;;;;;35.87;16.77;;;10.60;90.40;;;;;;4995468;28;20185;-91
2022/11/11 08:14:04;;;;;;;29.83;18.30;;;10.60;90.40;;;;;;4998267;28;20181;-90
2022/11/11 08:16:30;;;;;;;32.93;18.07;;;10.60;90.40;;;;;;4994368;28;20236;-89
2022/11/11 08:18:57;;;;;;;36.13;17.63;;;10.60;90.40;;;;;;4995388;28;20189;-89
2022/11/11 08:21:23;;;;;;;28.83;17.50;;;10.60;90.50;;;;;;4994187;28;20272;-89
2022/11/11 08:23:48;;;;;;;32.53;17.80;;;10.60;90.50;;;;;;4994455;28;20182;-90
2022/11/11 08:26:14;;;;;;;28.10;17.97;;;10.70;90.60;;;;;;4994130;28;20214;-90
2022/11/11 08:28:40;;;;;;;37.47;19.13;;;10.70;90.70;;;;;;4994165;28;20185;-89
2022/11/11 08:31:05;;;;;;;31.30;19.40;;;10.70;90.70;;;;;;4995217;28;20206;-90
2022/11/11 08:33:31;;;;;;;25.67;17.97;;;10.70;90.70;;;;;;4994883;28;20205;-90
2022/11/11 08:35:58;;;;;;;32.77;19.83;;;10.70;90.80;;;;;;4994149;28;20202;-90
2022/11/11 08:38:24;;;;;;;36.83;20.93;;;10.70;90.90;;;;;;4994121;28;20212;-90
2022/11/11 08:40:51;;;;;;;28.10;18.93;;;10.70;90.90;;;;;;4995207;28;20185;-90
2022/11/11 08:43:16;;;;;;;29.60;19.70;;;10.70;90.80;;;;;;4993994;28;20197;-90
2022/11/11 08:45:42;;;;;;;36.77;18.60;;;10.70;90.90;;;;;;4993886;28;20218;-90
2022/11/11 08:48:11;;;;;;;34.53;20.27;;;10.70;91.00;;;;;;4993850;28;20628;-90
2022/11/11 08:50:38;;;;;;;35.17;20.30;;;10.70;91.00;;;;;;4993341;28;20269;-91
2022/11/11 08:53:06;;;;;;;30.73;18.40;;;10.70;91.20;;;;;;4993786;28;20182;-90
2022/11/11 08:55:32;;;;;;;33.87;20.70;;;10.70;91.30;;;;;;4993728;28;20256;-90
2022/11/11 08:57:59;;;;;;;41.63;20.57;;;10.70;91.40;;;;;;4993612;28;20186;-90
2022/11/11 09:00:25;;;;;;;27.30;18.83;;;10.70;91.40;;;;;;4994164;28;20182;-89
2022/11/11 09:02:51;;;;;;;44.83;21.50;;;10.70;91.50;;;;;;4995118;28;20661;-90
2022/11/11 09:05:17;;;;;;;29.83;18.23;;;10.70;91.60;;;;;;4994499;28;20321;-89
2022/11/11 09:07:42;;;;;;;28.70;21.40;;;10.70;91.60;;;;;;4993568;28;20182;-90
2022/11/11 09:10:08;;;;;;;32.93;20.27;;;10.70;91.70;;;;;;4993593;28;20182;-91
2022/11/11 09:12:34;;;;;;;34.97;20.10;;;10.70;91.70;;;;;;4993880;28;20316;-90
2022/11/11 09:15:00;;;;;;;38.73;22.10;;;10.70;91.80;;;;;;4993846;28;20229;-90
2022/11/11 09:17:26;;;;;;;37.90;21.37;;;10.70;91.80;;;;;;4993977;28;20324;-90
2022/11/11 09:19:52;;;;;;;32.10;20.80;;;10.70;91.80;;;;;;4993137;28;20684;-89
2022/11/11 09:22:17;;;;;;;37.17;22.17;;;10.70;91.90;;;;;;4993334;28;20213;-90
2022/11/11 09:24:43;;;;;;;42.37;24.63;;;10.80;91.90;;;;;;4994508;28;20243;-89
2022/11/11 09:27:09;;;;;;;38.47;22.67;;;10.70;91.90;;;;;;4993255;28;20272;-90
2022/11/11 09:29:35;;;;;;;39.37;22.30;;;10.80;91.80;;;;;;4993137;28;20178;-91
2022/11/11 09:32:01;;;;;;;35.33;22.03;;;10.80;91.90;;;;;;4993308;28;20189;-89
2022/11/11 09:34:26;;;;;;;45.53;23.60;;;10.80;91.90;;;;;;4993162;28;20225;-90
2022/11/11 09:36:52;;;;;;;42.60;24.30;;;10.80;91.70;;;;;;4993152;28;20178;-90
2022/11/11 09:39:17;;;;;;;31.70;21.37;;;10.80;91.70;;;;;;4992973;28;20182;-90
2022/11/11 09:42:02;;;;;;;34.77;20.23;;;10.90;91.70;;;;;;4993187;28;20209;-91
2022/11/11 09:44:42;;;;;;;35.70;22.97;;;11.00;91.40;;;;;;4993850;28;20198;-90
2022/11/11 09:47:34;;;;;;;38.43;22.77;;;11.10;91.40;;;;;;4996253;28;20169;-89
2022/11/11 09:50:14;;;;;;;28.60;20.60;;;11.00;91.20;;;;;;4993390;28;20198;-90
2022/11/11 09:52:50;;;;;;;36.60;21.93;;;11.10;91.20;;;;;;4992956;28;20185;-90
2022/11/11 09:55:42;;;;;;;38.37;21.67;;;11.20;91.00;;;;;;4994014;28;20737;-90
2022/11/11 09:58:28;;;;;;;38.53;21.37;;;11.20;90.60;;;;;;4988965;28;20185;-90
2022/11/11 10:01:39;;;;;;;28.20;18.57;;;11.30;90.60;;;;;;4995746;28;20185;-89
2022/11/11 10:04:13;;;;;;;33.13;17.60;;;11.30;90.20;;;;;;4998903;28;20256;-91
2022/11/11 10:06:52;;;;;;;30.50;18.67;;;11.30;89.90;;;;;;4997215;28;20221;-89
2022/11/11 10:09:24;;;;;;;33.70;20.13;;;11.40;90.00;;;;;;4999117;28;20227;-91
2022/11/11 10:12:09;;;;;;;27.60;18.73;;;11.40;89.30;;;;;;4997373;28;20178;-90
2022/11/11 10:14:40;;;;;;;29.43;18.63;;;11.50;89.10;;;;;;4997775;28;20194;-90
2022/11/11 10:17:29;;;;;;;27.00;18.10;;;11.50;88.90;;;;;;4997390;28;20634;-89
2022/11/11 10:20:17;;;;;;;28.40;17.23;;;11.60;88.80;;;;;;4997682;28;20231;-90
2022/11/11 10:22:44;;;;;;;32.00;17.13;;;11.70;88.50;;;;;;4997739;28;20174;-90
2022/11/11 10:25:15;;;;;;;28.47;16.20;;;11.70;88.10;;;;;;5003488;28;20218;-92
2022/11/11 10:27:43;;;;;;;26.53;14.40;;;11.80;87.50;;;;;;4997653;28;20178;-91
2022/11/11 10:30:23;;;;;;;24.53;15.93;;;11.80;87.20;;;;;;4997064;28;20178;-90
2022/11/11 10:33:18;;;;;;;24.47;12.27;;;11.90;86.50;;;;;;4997979;28;20173;-90
2022/11/11 10:35:46;;;;;;;25.63;16.40;;;11.90;86.30;;;;;;4997307;28;20190;-91
2022/11/11 10:38:30;;;;;;;23.47;15.47;;;11.90;86.50;;;;;;5000307;28;20185;-91
2022/11/11 10:41:12;;;;;;;20.23;13.17;;;12.00;86.70;;;;;;4999166;28;20181;-90
2022/11/11 10:43:38;;;;;;;20.30;14.87;;;12.00;86.30;;;;;;5000203;28;20198;-90
2022/11/11 10:46:30;;;;;;;22.03;13.60;;;12.00;86.20;;;;;;4997462;28;20240;-90
2022/11/11 10:49:01;;;;;;;21.20;13.70;;;12.00;85.90;;;;;;4997969;28;20681;-88
2022/11/11 10:51:33;;;;;;;20.57;14.07;;;12.00;85.80;;;;;;4996071;28;20170;-89
2022/11/11 10:54:22;;;;;;;24.00;15.27;;;12.00;85.90;;;;;;4995920;28;20552;-89
2022/11/11 10:57:19;;;;;;;19.03;11.27;;;12.00;85.70;;;;;;4995967;28;20166;-89
2022/11/11 11:00:05;;;;;;;22.73;14.10;;;12.00;85.00;;;;;;4996595;28;20202;-89
2022/11/11 11:02:58;;;;;;;18.60;13.30;;;12.00;85.50;;;;;;4996003;28;20725;-89
2022/11/11 11:05:58;;;;;;;22.67;13.10;;;12.00;85.50;;;;;;4951214;28;20236;-89
2022/11/11 11:08:28;;;;;;;21.77;14.00;;;12.00;85.70;;;;;;4996499;28;20654;-89
2022/11/11 11:10:59;;;;;;;17.40;12.63;;;12.10;85.80;;;;;;4996893;28;20167;-88
2022/11/11 11:13:40;;;;;;;23.27;13.73;;;12.00;84.80;;;;;;4994935;28;20166;-89
2022/11/11 11:16:17;;;;;;;22.50;13.50;;;12.00;85.30;;;;;;4996491;28;20352;-89
2022/11/11 11:18:43;;;;;;;20.83;14.33;;;12.10;85.60;;;;;;4995555;28;20177;-87
2022/11/11 11:21:09;;;;;;;21.80;13.40;;;12.10;85.60;;;;;;4996668;28;20185;-87
2022/11/11 11:23:43;;;;;;;22.20;13.30;;;12.10;85.50;;;;;;4996425;28;20174;-87
2022/11/11 11:26:10;;;;;;;22.90;13.67;;;12.10;85.50;;;;;;4996188;28;20202;-89
2022/11/11 11:28:53;;;;;;;20.17;14.10;;;12.10;85.60;;;;;;4995830;28;20236;-88
2022/11/11 11:31:35;;;;;;;18.17;13.83;;;12.00;85.40;;;;;;4996743;28;20647;-88
2022/11/11 11:34:00;;;;;;;19.30;13.27;;;12.10;85.20;;;;;;4996240;28;20169;-88
2022/11/11 11:36:26;;;;;;;21.03;14.00;;;12.00;85.10;;;;;;4996836;28;20178;-88
2022/11/11 11:38:51;;;;;;;20.57;13.80;;;12.00;84.90;;;;;;4996963;28;20254;-89
2022/11/11 11:41:35;;;;;;;20.97;13.90;;;12.10;85.30;;;;;;4996207;28;20420;-89
2022/11/11 11:44:01;;;;;;;16.37;12.50;;;12.10;85.40;;;;;;4996526;28;20180;-88
2022/11/11 11:46:38;;;;;;;17.77;13.23;;;12.10;85.20;;;;;;4996313;28;20210;-88
2022/11/11 11:49:31;;;;;;;23.23;13.60;;;12.00;85.20;;;;;;4995813;28;20713;-88
2022/11/11 11:52:04;;;;;;;18.87;12.97;;;12.10;85.10;;;;;;4994667;28;20175;-87
2022/11/11 11:55:00;;;;;;;21.43;13.50;;;12.00;84.80;;;;;;4995093;28;20551;-87
2022/11/11 11:57:52;;;;;;;18.47;12.37;;;12.10;85.10;;;;;;4996315;28;20158;-87
2022/11/11 12:00:22;;;;;;;20.07;13.43;;;12.10;85.30;;;;;;4994459;28;20658;-89
2022/11/11 12:03:02;;;;;;;22.27;13.47;;;12.10;85.50;;;;;;4996102;28;20164;-87
2022/11/11 12:05:48;;;;;;;24.27;13.53;;;12.00;85.80;;;;;;4994456;28;20291;-87
2022/11/11 12:08:35;;;;;;;20.33;13.83;;;12.10;85.90;;;;;;4995673;28;20178;-88
2022/11/11 12:11:36;;;;;;;16.13;13.73;;;12.00;85.60;;;;;;4996195;28;20159;-88
2022/11/11 12:14:26;;;;;;;21.13;14.17;;;12.10;85.60;;;;;;4957870;28;20189;-88
2022/11/11 12:17:25;;;;;;;23.47;14.00;;;12.00;85.70;;;;;;4995723;28;20163;-88
2022/11/11 12:20:18;;;;;;;19.40;14.57;;;12.00;85.60;;;;;;4995321;28;20177;-85
2022/11/11 12:23:01;;;;;;;17.03;12.57;;;11.90;85.50;;;;;;4995087;28;20228;-87
2022/11/11 12:25:45;;;;;;;20.33;14.83;;;11.90;85.30;;;;;;4993296;28;20236;-86
2022/11/11 12:28:39;;;;;;;21.93;14.13;;;11.90;85.90;;;;;;4995851;28;20182;-89
2022/11/11 12:31:14;;;;;;;23.33;14.00;;;11.80;85.50;;;;;;4991758;28;20213;-88
2022/11/11 12:33:57;;;;;;;21.03;13.03;;;11.90;85.80;;;;;;4995628;28;20174;-88
2022/11/11 12:36:35;;;;;;;22.63;13.70;;;11.80;85.70;;;;;;4994574;28;20184;-88
2022/11/11 12:39:00;;;;;;;19.83;12.83;;;11.80;86.10;;;;;;4994280;28;20182;-88
2022/11/11 12:42:16;;;;;;;23.27;13.63;;;11.80;85.80;;;;;;4994147;28;20273;-88
2022/11/11 12:44:57;;;;;;;19.73;14.03;;;11.80;85.80;;;;;;4987462;28;20216;-88
2022/11/11 12:47:47;;;;;;;21.00;13.87;;;11.80;86.20;;;;;;4994845;28;20166;-88
2022/11/11 12:50:21;;;;;;;24.10;14.47;;;11.80;86.40;;;;;;4994012;28;20253;-88
2022/11/11 12:53:07;;;;;;;19.97;14.40;;;11.80;86.30;;;;;;4995147;28;20325;-89
2022/11/11 12:55:59;;;;;;;19.40;13.73;;;11.80;86.40;;;;;;4995178;28;20229;-88
2022/11/11 12:59:00;;;;;;;23.37;15.17;;;11.80;86.30;;;;;;4994457;28;20181;-88
2022/11/11 13:01:56;;;;;;;21.63;15.87;;;11.80;86.60;;;;;;4969955;28;20193;-88
2022/11/11 13:05:01;;;;;;;23.37;14.57;;;11.80;86.20;;;;;;4993438;28;20221;-88
2022/11/11 13:07:52;;;;;;;28.53;14.80;;;11.80;86.60;;;;;;4978008;28;20197;-89
2022/11/11 13:10:45;;;;;;;24.80;14.37;;;11.80;86.40;;;;;;4993623;28;20599;-90
2022/11/11 13:13:55;;;;;;;23.73;15.07;;;11.80;86.50;;;;;;4994054;28;20519;-88
2022/11/11 13:16:23;;;;;;;23.47;14.27;;;11.80;86.20;;;;;;4900096;29;20180;-88
2022/11/11 13:19:17;;;;;;;21.03;13.47;;;11.70;86.20;;;;;;4975339;28;20182;-90
2022/11/11 13:21:50;;;;;;;18.60;13.93;;;11.70;86.30;;;;;;4993392;28;20650;-90
2022/11/11 13:24:20;;;;;;;21.90;15.10;;;11.70;86.70;;;;;;4996222;28;20564;-90
2022/11/11 13:26:52;;;;;;;23.60;14.73;;;11.70;86.70;;;;;;4999024;28;20284;-90
2022/11/11 13:29:55;;;;;;;22.73;15.13;;;11.70;86.50;;;;;;4999625;28;20169;-90
2022/11/11 13:32:28;;;;;;;23.53;15.43;;;11.70;86.30;;;;;;4996676;28;20176;-90
2022/11/11 13:34:54;;;;;;;24.57;14.70;;;11.70;86.30;;;;;;4996671;28;20197;-90
2022/11/11 13:37:27;;;;;;;30.07;16.83;;;11.70;86.80;;;;;;4997378;28;20182;-90
2022/11/11 13:39:58;;;;;;;22.40;14.97;;;11.60;86.50;;;;;;4999959;28;20688;-90
2022/11/11 13:42:29;;;;;;;25.57;15.63;;;11.60;86.40;;;;;;5002093;28;20174;-90
2022/11/11 13:44:59;;;;;;;22.53;15.77;;;11.70;86.30;;;;;;4999513;28;20216;-90
2022/11/11 13:47:39;;;;;;;18.00;14.17;;;11.60;86.40;;;;;;4999637;28;20171;-90
2022/11/11 13:50:11;;;;;;;22.13;15.97;;;11.60;86.80;;;;;;4999841;28;20201;-90
2022/11/11 13:52:51;;;;;;;23.90;16.63;;;11.60;86.60;;;;;;4997441;28;20182;-90
2022/11/11 13:55:28;;;;;;;28.47;16.40;;;11.60;86.80;;;;;;4994968;28;20211;-90
2022/11/11 13:57:55;;;;;;;23.77;15.90;;;11.60;86.70;;;;;;4999793;28;20213;-90
2022/11/11 14:00:23;;;;;;;26.70;16.77;;;11.60;86.70;;;;;;5000096;28;20656;-90
2022/11/11 14:03:20;;;;;;;26.93;16.63;;;11.60;86.70;;;;;;4997398;28;20257;-90